createdAt,value
2018-06-10T00:00:34.135Z,0.00
2018-06-10T00:01:34.121Z,0.00
2018-06-10T00:02:34.107Z,0.00
2018-06-10T00:03:34.093Z,0.00
2018-06-10T00:04:34.079Z,0.00
2018-06-10T00:05:34.067Z,0.00
2018-06-10T00:06:34.054Z,0.00
2018-06-10T00:07:34.036Z,0.00
2018-06-10T00:08:34.028Z,0.00
2018-06-10T00:09:34.024Z,0.00
2018-06-10T00:10:34.003Z,0.00
2018-06-10T00:11:33.988Z,0.00
2018-06-10T00:12:33.978Z,0.00
2018-06-10T00:13:33.962Z,0.00
2018-06-10T00:14:33.951Z,0.00
2018-06-10T00:15:33.937Z,0.00
2018-06-10T00:16:33.921Z,0.00
2018-06-10T00:17:33.911Z,0.00
2018-06-10T00:18:33.891Z,0.00
2018-06-10T00:19:33.884Z,0.00
2018-06-10T00:20:33.869Z,0.00
2018-06-10T00:21:33.862Z,0.00
2018-06-10T00:22:33.840Z,0.00
2018-06-10T00:23:33.824Z,0.00
2018-06-10T00:24:33.816Z,0.00
2018-06-10T00:25:33.796Z,0.00
2018-06-10T00:26:33.784Z,0.00
2018-06-10T00:27:33.775Z,0.00
2018-06-10T00:28:33.760Z,0.00
2018-06-10T00:29:33.744Z,0.00
2018-06-10T00:30:33.737Z,0.00
2018-06-10T00:31:33.722Z,0.00
2018-06-10T00:32:33.703Z,0.00
2018-06-10T00:33:33.704Z,0.00
2018-06-10T00:34:33.681Z,0.00
2018-06-10T00:35:33.678Z,0.00
2018-06-10T00:36:33.653Z,0.00
2018-06-10T00:37:33.648Z,0.00
2018-06-10T00:38:33.621Z,0.00
2018-06-10T00:39:33.616Z,0.00
2018-06-10T00:40:33.600Z,0.00
2018-06-10T00:41:33.593Z,0.00
2018-06-10T00:42:33.572Z,0.00
2018-06-10T00:43:33.557Z,0.00
2018-06-10T00:44:33.545Z,0.00
2018-06-10T00:45:33.535Z,0.00
2018-06-10T00:46:33.519Z,0.00
2018-06-10T00:47:33.504Z,0.00
2018-06-10T00:48:33.489Z,0.00
2018-06-10T00:49:33.477Z,0.00
2018-06-10T00:50:33.466Z,0.00
2018-06-10T00:51:33.450Z,0.00
2018-06-10T00:52:33.436Z,0.00
2018-06-10T00:53:33.422Z,0.00
2018-06-10T00:54:33.407Z,0.00
2018-06-10T00:55:33.387Z,0.00
2018-06-10T00:56:33.377Z,0.00
2018-06-10T00:57:33.368Z,0.00
2018-06-10T00:58:33.355Z,0.00
2018-06-10T00:59:33.342Z,0.00
2018-06-10T01:00:33.331Z,0.00
2018-06-10T01:01:33.313Z,0.00
2018-06-10T01:02:33.295Z,0.00
2018-06-10T01:03:33.282Z,0.00
2018-06-10T01:04:33.286Z,0.00
2018-06-10T01:05:33.277Z,0.00
2018-06-10T01:06:33.240Z,0.00
2018-06-10T01:07:33.228Z,0.00
2018-06-10T01:08:33.209Z,0.00
2018-06-10T01:09:33.204Z,0.00
2018-06-10T01:10:33.190Z,0.00
2018-06-10T01:11:33.176Z,0.00
2018-06-10T01:12:33.160Z,0.00
2018-06-10T01:13:33.147Z,0.00
2018-06-10T01:14:33.137Z,0.00
2018-06-10T01:15:33.123Z,0.00
2018-06-10T01:16:33.107Z,0.00
2018-06-10T01:17:33.087Z,0.00
2018-06-10T01:18:33.076Z,0.00
2018-06-10T01:19:33.062Z,0.00
2018-06-10T01:20:33.051Z,0.00
2018-06-10T01:21:33.034Z,0.00
2018-06-10T01:22:33.036Z,0.00
2018-06-10T01:23:33.005Z,0.00
2018-06-10T01:24:32.991Z,0.00
2018-06-10T01:25:32.978Z,0.00
2018-06-10T01:26:32.966Z,0.00
2018-06-10T01:27:32.950Z,0.00
2018-06-10T01:28:32.938Z,0.00
2018-06-10T01:29:32.920Z,0.00
2018-06-10T01:30:32.910Z,0.00
2018-06-10T01:31:32.893Z,0.00
2018-06-10T01:32:32.878Z,0.00
2018-06-10T01:33:32.867Z,0.00
2018-06-10T01:34:32.849Z,0.00
2018-06-10T01:35:32.839Z,0.00
2018-06-10T01:36:32.822Z,0.00
2018-06-10T01:37:32.806Z,0.00
2018-06-10T01:38:32.792Z,0.00
2018-06-10T01:39:32.778Z,0.00
2018-06-10T01:40:32.769Z,0.00
2018-06-10T01:41:32.748Z,0.00
2018-06-10T01:42:32.734Z,0.00
2018-06-10T01:43:32.721Z,0.00
2018-06-10T01:44:32.706Z,0.00
2018-06-10T01:45:32.688Z,0.00
2018-06-10T01:46:32.679Z,0.00
2018-06-10T01:47:32.664Z,0.00
2018-06-10T01:48:32.651Z,0.00
2018-06-10T01:49:32.635Z,0.00
2018-06-10T01:50:32.621Z,0.00
2018-06-10T01:51:32.607Z,0.00
2018-06-10T01:52:32.589Z,0.00
2018-06-10T01:53:32.579Z,0.00
2018-06-10T01:54:32.563Z,0.00
2018-06-10T01:55:32.561Z,0.00
2018-06-10T01:56:32.547Z,0.00
2018-06-10T01:57:32.522Z,0.00
2018-06-10T01:58:32.506Z,0.00
2018-06-10T01:59:32.494Z,0.00
2018-06-10T02:00:32.478Z,0.00
2018-06-10T02:01:32.463Z,0.00
2018-06-10T02:02:32.449Z,0.00
2018-06-10T02:03:32.433Z,0.00
2018-06-10T02:04:32.418Z,0.00
2018-06-10T02:05:32.409Z,0.00
2018-06-10T02:06:32.392Z,0.00
2018-06-10T02:07:32.374Z,0.00
2018-06-10T02:08:32.361Z,0.00
2018-06-10T02:09:32.347Z,0.00
2018-06-10T02:10:32.332Z,0.00
2018-06-10T02:11:32.318Z,0.00
2018-06-10T02:12:32.301Z,0.00
2018-06-10T02:13:32.287Z,0.00
2018-06-10T02:14:32.268Z,0.00
2018-06-10T02:15:32.259Z,0.00
2018-06-10T02:16:32.244Z,0.00
2018-06-10T02:17:32.229Z,0.00
2018-06-10T02:18:32.219Z,0.00
2018-06-10T02:19:32.204Z,0.00
2018-06-10T02:20:32.180Z,0.00
2018-06-10T02:21:32.179Z,0.00
2018-06-10T02:22:32.155Z,0.00
2018-06-10T02:23:32.160Z,0.00
2018-06-10T02:24:32.129Z,0.00
2018-06-10T02:25:32.109Z,0.00
2018-06-10T02:26:32.094Z,0.00
2018-06-10T02:27:32.086Z,0.00
2018-06-10T02:28:32.072Z,0.00
2018-06-10T02:29:32.051Z,0.00
2018-06-10T02:30:32.055Z,0.00
2018-06-10T02:31:32.025Z,0.00
2018-06-10T02:32:32.004Z,0.00
2018-06-10T02:33:31.991Z,0.00
2018-06-10T02:34:31.990Z,0.00
2018-06-10T02:35:31.969Z,0.00
2018-06-10T02:36:31.948Z,0.00
2018-06-10T02:37:31.932Z,0.00
2018-06-10T02:38:31.942Z,0.00
2018-06-10T02:39:31.902Z,0.00
2018-06-10T02:40:31.895Z,0.00
2018-06-10T02:41:31.881Z,0.00
2018-06-10T02:42:31.877Z,0.00
2018-06-10T02:43:31.859Z,0.00
2018-06-10T02:44:31.840Z,0.00
2018-06-10T02:45:31.827Z,4.00
2018-06-10T02:46:31.816Z,4.00
2018-06-10T02:47:31.804Z,4.00
2018-06-10T02:48:31.779Z,0.00
2018-06-10T02:49:31.759Z,4.00
2018-06-10T02:50:31.746Z,4.00
2018-06-10T02:51:31.740Z,4.00
2018-06-10T02:52:31.719Z,4.00
2018-06-10T02:53:31.709Z,8.00
2018-06-10T02:54:31.694Z,4.00
2018-06-10T02:55:31.677Z,8.00
2018-06-10T02:56:31.665Z,8.00
2018-06-10T02:57:31.641Z,8.00
2018-06-10T02:58:31.634Z,12.00
2018-06-10T02:59:31.613Z,12.00
2018-06-10T03:00:31.595Z,12.00
2018-06-10T03:01:31.594Z,12.00
2018-06-10T03:02:31.575Z,16.00
2018-06-10T03:03:31.561Z,16.00
2018-06-10T03:04:31.542Z,16.00
2018-06-10T03:05:31.528Z,20.00
2018-06-10T03:06:31.519Z,24.00
2018-06-10T03:07:31.500Z,24.00
2018-06-10T03:08:31.486Z,28.00
2018-06-10T03:09:31.473Z,28.00
2018-06-10T03:10:31.460Z,32.00
2018-06-10T03:11:31.448Z,32.00
2018-06-10T03:12:31.429Z,36.00
2018-06-10T03:13:31.413Z,40.00
2018-06-10T03:14:31.398Z,44.00
2018-06-10T03:15:31.384Z,48.00
2018-06-10T03:16:31.372Z,48.00
2018-06-10T03:17:31.362Z,56.00
2018-06-10T03:18:31.348Z,60.00
2018-06-10T03:19:31.329Z,64.00
2018-06-10T03:20:31.311Z,72.00
2018-06-10T03:21:31.292Z,76.00
2018-06-10T03:22:31.278Z,84.00
2018-06-10T03:23:31.262Z,84.00
2018-06-10T03:24:31.249Z,92.00
2018-06-10T03:25:31.256Z,96.00
2018-06-10T03:26:31.289Z,104.00
2018-06-10T03:27:31.212Z,112.00
2018-06-10T03:28:31.184Z,124.00
2018-06-10T03:29:31.174Z,132.00
2018-06-10T03:30:31.172Z,144.00
2018-06-10T03:31:31.148Z,152.00
2018-06-10T03:32:31.138Z,164.00
2018-06-10T03:33:31.122Z,172.00
2018-06-10T03:34:31.100Z,188.00
2018-06-10T03:35:31.085Z,196.00
2018-06-10T03:36:31.075Z,204.00
2018-06-10T03:37:31.056Z,216.00
2018-06-10T03:38:31.043Z,232.00
2018-06-10T03:39:31.034Z,248.00
2018-06-10T03:40:31.017Z,260.00
2018-06-10T03:41:31.015Z,276.00
2018-06-10T03:42:30.998Z,288.00
2018-06-10T03:43:30.976Z,304.00
2018-06-10T03:44:30.963Z,316.00
2018-06-10T03:45:30.946Z,332.00
2018-06-10T03:46:30.929Z,348.00
2018-06-10T03:47:30.916Z,364.00
2018-06-10T03:48:30.913Z,380.00
2018-06-10T03:49:30.887Z,400.00
2018-06-10T03:50:30.873Z,420.00
2018-06-10T03:51:30.857Z,448.00
2018-06-10T03:52:30.842Z,468.00
2018-06-10T03:53:30.820Z,484.00
2018-06-10T03:54:30.811Z,500.00
2018-06-10T03:55:30.795Z,512.00
2018-06-10T03:56:30.780Z,524.00
2018-06-10T03:57:30.762Z,540.00
2018-06-10T03:58:30.754Z,556.00
2018-06-10T03:59:30.737Z,568.00
2018-06-10T04:00:30.724Z,588.00
2018-06-10T04:01:30.704Z,612.00
2018-06-10T04:02:30.690Z,632.00
2018-06-10T04:03:30.678Z,652.00
2018-06-10T04:04:30.661Z,664.00
2018-06-10T04:05:30.646Z,676.00
2018-06-10T04:06:30.632Z,684.00
2018-06-10T04:07:30.627Z,692.00
2018-06-10T04:08:30.610Z,700.00
2018-06-10T04:09:30.589Z,720.00
2018-06-10T04:10:30.572Z,744.00
2018-06-10T04:11:30.558Z,768.00
2018-06-10T04:12:30.540Z,800.00
2018-06-10T04:13:30.531Z,824.00
2018-06-10T04:14:30.516Z,836.00
2018-06-10T04:15:30.500Z,860.00
2018-06-10T04:16:30.485Z,868.00
2018-06-10T04:17:30.469Z,880.00
2018-06-10T04:18:30.455Z,900.00
2018-06-10T04:19:30.441Z,908.00
2018-06-10T04:20:30.429Z,920.00
2018-06-10T04:21:30.412Z,936.00
2018-06-10T04:22:30.459Z,956.00
2018-06-10T04:23:30.387Z,980.00
2018-06-10T04:24:30.373Z,1008.00
2018-06-10T04:25:30.353Z,1040.00
2018-06-10T04:26:30.338Z,1080.00
2018-06-10T04:27:30.324Z,1116.00
2018-06-10T04:28:30.314Z,1168.00
2018-06-10T04:29:30.293Z,1208.00
2018-06-10T04:30:30.274Z,1232.00
2018-06-10T04:31:30.265Z,1196.00
2018-06-10T04:32:30.253Z,1080.00
2018-06-10T04:33:30.237Z,920.00
2018-06-10T04:34:30.221Z,844.00
2018-06-10T04:35:30.208Z,948.00
2018-06-10T04:36:30.192Z,1048.00
2018-06-10T04:37:30.177Z,960.00
2018-06-10T04:38:30.168Z,860.00
2018-06-10T04:39:30.150Z,804.00
2018-06-10T04:40:30.141Z,1012.00
2018-06-10T04:41:30.115Z,1248.00
2018-06-10T04:42:30.100Z,1380.00
2018-06-10T04:43:30.093Z,1464.00
2018-06-10T04:44:30.072Z,1528.00
2018-06-10T04:45:30.058Z,1516.00
2018-06-10T04:46:30.044Z,1368.00
2018-06-10T04:47:30.037Z,1084.00
2018-06-10T04:48:30.017Z,956.00
2018-06-10T04:49:30.001Z,976.00
2018-06-10T04:50:29.988Z,1056.00
2018-06-10T04:51:29.968Z,892.00
2018-06-10T04:52:29.956Z,736.00
2018-06-10T04:53:29.945Z,820.00
2018-06-10T04:54:29.930Z,1020.00
2018-06-10T04:55:29.909Z,1176.00
2018-06-10T04:56:29.898Z,1232.00
2018-06-10T04:57:29.894Z,1204.00
2018-06-10T04:58:29.877Z,1172.00
2018-06-10T04:59:29.858Z,1132.00
2018-06-10T05:00:29.844Z,1028.00
2018-06-10T05:01:29.822Z,1192.00
2018-06-10T05:02:29.809Z,1364.00
2018-06-10T05:03:29.804Z,1412.00
2018-06-10T05:04:29.783Z,1412.00
2018-06-10T05:05:29.791Z,1460.00
2018-06-10T05:06:29.756Z,1420.00
2018-06-10T05:07:29.748Z,1608.00
2018-06-10T05:08:29.722Z,1740.00
2018-06-10T05:09:29.709Z,1788.00
2018-06-10T05:10:29.700Z,1816.00
2018-06-10T05:11:29.678Z,1792.00
2018-06-10T05:12:29.667Z,1804.00
2018-06-10T05:13:29.660Z,1792.00
2018-06-10T05:14:29.638Z,1720.00
2018-06-10T05:15:29.637Z,1620.00
2018-06-10T05:16:29.614Z,1528.00
2018-06-10T05:17:29.597Z,1532.00
2018-06-10T05:18:29.586Z,1548.00
2018-06-10T05:19:29.570Z,1520.00
2018-06-10T05:20:29.554Z,1532.00
2018-06-10T05:21:29.542Z,1620.00
2018-06-10T05:22:29.527Z,1636.00
2018-06-10T05:23:29.512Z,1612.00
2018-06-10T05:24:29.497Z,1556.00
2018-06-10T05:25:29.478Z,1440.00
2018-06-10T05:26:29.470Z,1336.00
2018-06-10T05:27:29.457Z,1212.00
2018-06-10T05:28:29.432Z,1208.00
2018-06-10T05:29:29.426Z,1224.00
2018-06-10T05:30:29.406Z,1224.00
2018-06-10T05:31:29.395Z,1232.00
2018-06-10T05:32:29.381Z,1248.00
2018-06-10T05:33:29.370Z,1284.00
2018-06-10T05:34:29.358Z,1328.00
2018-06-10T05:35:29.343Z,1384.00
2018-06-10T05:36:29.325Z,1440.00
2018-06-10T05:37:29.312Z,1476.00
2018-06-10T05:38:29.304Z,1504.00
2018-06-10T05:39:29.292Z,1544.00
2018-06-10T05:40:29.264Z,1588.00
2018-06-10T05:41:29.254Z,1608.00
2018-06-10T05:42:29.237Z,1624.00
2018-06-10T05:43:29.217Z,1660.00
2018-06-10T05:44:29.211Z,1720.00
2018-06-10T05:45:29.191Z,1752.00
2018-06-10T05:46:29.183Z,1816.00
2018-06-10T05:47:29.165Z,1856.00
2018-06-10T05:48:29.153Z,1960.00
2018-06-10T05:49:29.149Z,2104.00
2018-06-10T05:50:29.126Z,2264.00
2018-06-10T05:51:29.112Z,2356.00
2018-06-10T05:52:29.095Z,2420.00
2018-06-10T05:53:29.092Z,2484.00
2018-06-10T05:54:29.069Z,2492.00
2018-06-10T05:55:29.051Z,2472.00
2018-06-10T05:56:29.032Z,2392.00
2018-06-10T05:57:29.020Z,2476.00
2018-06-10T05:58:29.003Z,2320.00
2018-06-10T05:59:28.990Z,2320.00
2018-06-10T06:00:28.979Z,2496.00
2018-06-10T06:01:28.979Z,2744.00
2018-06-10T06:02:28.952Z,3060.00
2018-06-10T06:03:28.939Z,3072.00
2018-06-10T06:04:28.924Z,3244.00
2018-06-10T06:05:28.912Z,3452.00
2018-06-10T06:06:28.895Z,3672.00
2018-06-10T06:07:28.884Z,3920.00
2018-06-10T06:08:28.862Z,4028.00
2018-06-10T06:09:28.855Z,3804.00
2018-06-10T06:10:28.841Z,3568.00
2018-06-10T06:11:28.826Z,3584.00
2018-06-10T06:12:28.801Z,3924.00
2018-06-10T06:13:28.795Z,4252.00
2018-06-10T06:14:28.777Z,4696.00
2018-06-10T06:15:28.772Z,5124.00
2018-06-10T06:16:28.770Z,5392.00
2018-06-10T06:17:28.738Z,5396.00
2018-06-10T06:18:28.722Z,5752.00
2018-06-10T06:19:28.713Z,5740.00
2018-06-10T06:20:28.697Z,5436.00
2018-06-10T06:21:28.687Z,5276.00
2018-06-10T06:22:28.670Z,5444.00
2018-06-10T06:23:28.656Z,5524.00
2018-06-10T06:24:28.654Z,5364.00
2018-06-10T06:25:28.623Z,5064.00
2018-06-10T06:26:28.620Z,4704.00
2018-06-10T06:27:28.664Z,4496.00
2018-06-10T06:28:28.588Z,4468.00
2018-06-10T06:29:28.574Z,4280.00
2018-06-10T06:30:28.567Z,4204.00
2018-06-10T06:31:28.555Z,4196.00
2018-06-10T06:32:28.535Z,4152.00
2018-06-10T06:33:28.528Z,4164.00
2018-06-10T06:34:28.515Z,4120.00
2018-06-10T06:35:28.493Z,3892.00
2018-06-10T06:36:28.491Z,3944.00
2018-06-10T06:37:28.473Z,4336.00
2018-06-10T06:38:28.455Z,4840.00
2018-06-10T06:39:28.455Z,5320.00
2018-06-10T06:40:28.440Z,5972.00
2018-06-10T06:41:28.441Z,6424.00
2018-06-10T06:42:28.409Z,6396.00
2018-06-10T06:43:28.402Z,6100.00
2018-06-10T06:44:28.383Z,6156.00
2018-06-10T06:45:28.372Z,6380.00
2018-06-10T06:46:28.364Z,6600.00
2018-06-10T06:47:28.351Z,6972.00
2018-06-10T06:48:28.338Z,7248.00
2018-06-10T06:49:28.326Z,7140.00
2018-06-10T06:50:28.321Z,7028.00
2018-06-10T06:51:28.302Z,6880.00
2018-06-10T06:52:28.327Z,6996.00
2018-06-10T06:53:28.278Z,7148.00
2018-06-10T06:54:28.256Z,7404.00
2018-06-10T06:55:28.250Z,7312.00
2018-06-10T06:56:28.232Z,7396.00
2018-06-10T06:57:28.224Z,7388.00
2018-06-10T06:58:28.214Z,7580.00
2018-06-10T06:59:28.202Z,7252.00
2018-06-10T07:00:28.198Z,6324.00
2018-06-10T07:01:28.193Z,5688.00
2018-06-10T07:02:28.164Z,5364.00
2018-06-10T07:03:28.161Z,5108.00
2018-06-10T07:04:28.152Z,4500.00
2018-06-10T07:05:28.125Z,3920.00
2018-06-10T07:06:28.120Z,3348.00
2018-06-10T07:07:28.106Z,3264.00
2018-06-10T07:08:28.094Z,3888.00
2018-06-10T07:09:28.085Z,4392.00
2018-06-10T07:10:28.090Z,4328.00
2018-06-10T07:11:28.057Z,3812.00
2018-06-10T07:12:28.054Z,3544.00
2018-06-10T07:13:28.048Z,3592.00
2018-06-10T07:14:28.030Z,3560.00
2018-06-10T07:15:28.019Z,3648.00
2018-06-10T07:16:28.008Z,3968.00
2018-06-10T07:17:27.996Z,4528.00
2018-06-10T07:18:28.198Z,5068.00
2018-06-10T07:19:27.984Z,5328.00
2018-06-10T07:20:27.998Z,5356.00
2018-06-10T07:21:27.961Z,5352.00
2018-06-10T07:22:28.117Z,5472.00
2018-06-10T07:23:28.195Z,5388.00
2018-06-10T07:24:28.026Z,4828.00
2018-06-10T07:25:27.956Z,4004.00
2018-06-10T07:26:27.908Z,3468.00
2018-06-10T07:27:28.068Z,3140.00
2018-06-10T07:28:27.959Z,2900.00
2018-06-10T07:29:27.872Z,2864.00
2018-06-10T07:30:27.933Z,2820.00
2018-06-10T07:31:27.830Z,2900.00
2018-06-10T07:32:28.054Z,3064.00
2018-06-10T07:33:27.838Z,3348.00
2018-06-10T07:34:27.828Z,3716.00
2018-06-10T07:35:27.785Z,4372.00
2018-06-10T07:36:27.788Z,4948.00
2018-06-10T07:37:27.764Z,4488.00
2018-06-10T07:38:27.754Z,3868.00
2018-06-10T07:39:27.874Z,3516.00
2018-06-10T07:40:27.910Z,3224.00
2018-06-10T07:41:28.004Z,3472.00
2018-06-10T07:42:27.949Z,3720.00
2018-06-10T07:43:27.871Z,3568.00
2018-06-10T07:44:27.919Z,3392.00
2018-06-10T07:45:27.838Z,3156.00
2018-06-10T07:46:27.661Z,2764.00
2018-06-10T07:47:27.640Z,2596.00
2018-06-10T07:48:27.631Z,2836.00
2018-06-10T07:49:27.614Z,3444.00
2018-06-10T07:50:27.602Z,4056.00
2018-06-10T07:51:27.590Z,4356.00
2018-06-10T07:52:27.583Z,4028.00
2018-06-10T07:53:27.573Z,3792.00
2018-06-10T07:54:27.554Z,3956.00
2018-06-10T07:55:27.546Z,4580.00
2018-06-10T07:56:27.554Z,5496.00
2018-06-10T07:57:27.525Z,6496.00
2018-06-10T07:58:27.512Z,7224.00
2018-06-10T07:59:27.502Z,7632.00
2018-06-10T08:00:27.487Z,8008.00
2018-06-10T08:01:27.474Z,7768.00
2018-06-10T08:02:27.459Z,7612.00
2018-06-10T08:03:27.454Z,7748.00
2018-06-10T08:04:27.439Z,7780.00
2018-06-10T08:05:27.485Z,7780.00
2018-06-10T08:06:27.413Z,7528.00
2018-06-10T08:07:27.407Z,7464.00
2018-06-10T08:08:27.396Z,7664.00
2018-06-10T08:09:27.389Z,7896.00
2018-06-10T08:10:27.373Z,7916.00
2018-06-10T08:11:27.364Z,7608.00
2018-06-10T08:12:27.347Z,6968.00
2018-06-10T08:13:27.338Z,6596.00
2018-06-10T08:14:27.322Z,6332.00
2018-06-10T08:15:27.319Z,6564.00
2018-06-10T08:16:27.304Z,7432.00
2018-06-10T08:17:27.293Z,8408.00
2018-06-10T08:18:27.280Z,8968.00
2018-06-10T08:19:27.272Z,9120.00
2018-06-10T08:20:27.257Z,9320.00
2018-06-10T08:21:27.248Z,9404.00
2018-06-10T08:22:27.243Z,9080.00
2018-06-10T08:23:27.229Z,8592.00
2018-06-10T08:24:27.216Z,8544.00
2018-06-10T08:25:27.208Z,9092.00
2018-06-10T08:26:27.213Z,9256.00
2018-06-10T08:27:27.185Z,9408.00
2018-06-10T08:28:27.176Z,9608.00
2018-06-10T08:29:27.163Z,9244.00
2018-06-10T08:30:27.154Z,9252.00
2018-06-10T08:31:27.145Z,9604.00
2018-06-10T08:32:27.133Z,10184.00
2018-06-10T08:33:27.124Z,9564.00
2018-06-10T08:34:27.117Z,8660.00
2018-06-10T08:35:27.105Z,7964.00
2018-06-10T08:36:27.095Z,7644.00
2018-06-10T08:37:27.103Z,7352.00
2018-06-10T08:38:27.076Z,6760.00
2018-06-10T08:39:27.065Z,6580.00
2018-06-10T08:40:27.052Z,6988.00
2018-06-10T08:41:27.045Z,7292.00
2018-06-10T08:42:27.035Z,7216.00
2018-06-10T08:43:27.025Z,6856.00
2018-06-10T08:44:27.016Z,6724.00
2018-06-10T08:45:27.005Z,6732.00
2018-06-10T08:46:27.002Z,6716.00
2018-06-10T08:47:26.987Z,6656.00
2018-06-10T08:48:26.976Z,6688.00
2018-06-10T08:49:26.966Z,6804.00
2018-06-10T08:50:26.986Z,7212.00
2018-06-10T08:51:26.948Z,7796.00
2018-06-10T08:52:27.094Z,8192.00
2018-06-10T08:53:27.036Z,8516.00
2018-06-10T08:54:27.009Z,8772.00
2018-06-10T08:55:27.008Z,8872.00
2018-06-10T08:56:26.906Z,8648.00
2018-06-10T08:57:27.257Z,8292.00
2018-06-10T08:58:26.875Z,8112.00
2018-06-10T08:59:26.872Z,8108.00
2018-06-10T09:00:26.868Z,8068.00
2018-06-10T09:01:26.850Z,7756.00
2018-06-10T09:02:26.839Z,7456.00
2018-06-10T09:03:26.846Z,7592.00
2018-06-10T09:04:26.819Z,7868.00
2018-06-10T09:05:26.821Z,7740.00
2018-06-10T09:06:26.800Z,7612.00
2018-06-10T09:07:26.790Z,7868.00
2018-06-10T09:08:26.781Z,8732.00
2018-06-10T09:09:26.772Z,9688.00
2018-06-10T09:10:26.760Z,10208.00
2018-06-10T09:11:26.754Z,10496.00
2018-06-10T09:12:26.742Z,10476.00
2018-06-10T09:13:26.733Z,9920.00
2018-06-10T09:14:26.737Z,8584.00
2018-06-10T09:15:26.718Z,7760.00
2018-06-10T09:16:26.706Z,7316.00
2018-06-10T09:17:26.849Z,6916.00
2018-06-10T09:18:26.686Z,6532.00
2018-06-10T09:19:26.677Z,6392.00
2018-06-10T09:20:26.668Z,6556.00
2018-06-10T09:21:26.658Z,6772.00
2018-06-10T09:22:26.649Z,7252.00
2018-06-10T09:23:26.641Z,7824.00
2018-06-10T09:24:26.631Z,7872.00
2018-06-10T09:25:26.622Z,7776.00
2018-06-10T09:26:26.614Z,7808.00
2018-06-10T09:27:26.604Z,7552.00
2018-06-10T09:28:26.593Z,7704.00
2018-06-10T09:29:26.577Z,8540.00
2018-06-10T09:30:26.670Z,10012.00
2018-06-10T09:31:26.570Z,11096.00
2018-06-10T09:32:26.561Z,11056.00
2018-06-10T09:33:26.549Z,11040.00
2018-06-10T09:34:26.539Z,10916.00
2018-06-10T09:35:26.731Z,11168.00
2018-06-10T09:36:26.523Z,10736.00
2018-06-10T09:37:26.516Z,10224.00
2018-06-10T09:38:26.507Z,9812.00
2018-06-10T09:39:26.492Z,9828.00
2018-06-10T09:40:26.488Z,9996.00
2018-06-10T09:41:26.476Z,10100.00
2018-06-10T09:42:26.469Z,9996.00
2018-06-10T09:43:26.464Z,9808.00
2018-06-10T09:44:26.458Z,9588.00
2018-06-10T09:45:26.441Z,9368.00
2018-06-10T09:46:26.430Z,9732.00
2018-06-10T09:47:26.430Z,10088.00
2018-06-10T09:48:26.417Z,10648.00
2018-06-10T09:49:26.412Z,10972.00
2018-06-10T09:50:26.400Z,10972.00
2018-06-10T09:51:26.566Z,11160.00
2018-06-10T09:52:26.383Z,11248.00
2018-06-10T09:53:26.377Z,10824.00
2018-06-10T09:54:26.364Z,10352.00
2018-06-10T09:55:26.416Z,10156.00
2018-06-10T09:56:26.350Z,10024.00
2018-06-10T09:57:26.340Z,9980.00
2018-06-10T09:58:26.330Z,10212.00
2018-06-10T09:59:26.316Z,10432.00
2018-06-10T10:00:26.315Z,10780.00
2018-06-10T10:01:26.312Z,10732.00
2018-06-10T10:02:26.303Z,10232.00
2018-06-10T10:03:26.303Z,9572.00
2018-06-10T10:04:26.295Z,9040.00
2018-06-10T10:05:26.276Z,8816.00
2018-06-10T10:06:26.264Z,8656.00
2018-06-10T10:07:26.255Z,8440.00
2018-06-10T10:08:26.251Z,8224.00
2018-06-10T10:09:26.243Z,7916.00
2018-06-10T10:10:26.233Z,7632.00
2018-06-10T10:11:26.228Z,7492.00
2018-06-10T10:12:26.217Z,7544.00
2018-06-10T10:13:26.209Z,7440.00
2018-06-10T10:14:26.215Z,7236.00
2018-06-10T10:15:26.192Z,7248.00
2018-06-10T10:16:26.182Z,7768.00
2018-06-10T10:17:26.173Z,8616.00
2018-06-10T10:18:26.164Z,9512.00
2018-06-10T10:19:26.158Z,10088.00
2018-06-10T10:20:26.150Z,9996.00
2018-06-10T10:21:26.138Z,9464.00
2018-06-10T10:22:26.130Z,9036.00
2018-06-10T10:23:26.128Z,8984.00
2018-06-10T10:24:26.113Z,9548.00
2018-06-10T10:25:26.145Z,10408.00
2018-06-10T10:26:26.097Z,11424.00
2018-06-10T10:27:26.089Z,11868.00
2018-06-10T10:28:26.079Z,11436.00
2018-06-10T10:29:26.072Z,10588.00
2018-06-10T10:30:26.062Z,10116.00
2018-06-10T10:31:26.054Z,9888.00
2018-06-10T10:32:26.045Z,9712.00
2018-06-10T10:33:26.038Z,9768.00
2018-06-10T10:34:26.028Z,9896.00
2018-06-10T10:35:26.021Z,10116.00
2018-06-10T10:36:26.012Z,10376.00
2018-06-10T10:37:26.005Z,10584.00
2018-06-10T10:38:26.023Z,10740.00
2018-06-10T10:39:25.987Z,11024.00
2018-06-10T10:40:25.980Z,11516.00
2018-06-10T10:41:25.972Z,12280.00
2018-06-10T10:42:25.966Z,12832.00
2018-06-10T10:43:25.956Z,12088.00
2018-06-10T10:44:25.946Z,10928.00
2018-06-10T10:45:25.939Z,10064.00
2018-06-10T10:46:25.929Z,9132.00
2018-06-10T10:47:25.922Z,8164.00
2018-06-10T10:48:25.913Z,7624.00
2018-06-10T10:49:25.911Z,7404.00
2018-06-10T10:50:26.152Z,7472.00
2018-06-10T10:51:25.897Z,7816.00
2018-06-10T10:52:25.887Z,8236.00
2018-06-10T10:53:25.878Z,8664.00
2018-06-10T10:54:25.866Z,9132.00
2018-06-10T10:55:25.856Z,9672.00
2018-06-10T10:56:25.853Z,9804.00
2018-06-10T10:57:25.840Z,10268.00
2018-06-10T10:58:25.835Z,10888.00
2018-06-10T10:59:25.826Z,11432.00
2018-06-10T11:00:25.868Z,11680.00
2018-06-10T11:01:25.809Z,11932.00
2018-06-10T11:02:25.806Z,12312.00
2018-06-10T11:03:25.793Z,12752.00
2018-06-10T11:04:25.784Z,12928.00
2018-06-10T11:05:25.778Z,13224.00
2018-06-10T11:06:25.767Z,13800.00
2018-06-10T11:07:25.766Z,14376.00
2018-06-10T11:08:25.751Z,15136.00
2018-06-10T11:09:25.744Z,15296.00
2018-06-10T11:10:25.738Z,15296.00
2018-06-10T11:11:25.732Z,15008.00
2018-06-10T11:12:25.725Z,14480.00
2018-06-10T11:13:25.712Z,14284.00
2018-06-10T11:14:25.706Z,12760.00
2018-06-10T11:15:25.700Z,10388.00
2018-06-10T11:16:25.692Z,9616.00
2018-06-10T11:17:25.684Z,10072.00
2018-06-10T11:18:25.685Z,11100.00
2018-06-10T11:19:25.670Z,11792.00
2018-06-10T11:20:25.728Z,11688.00
2018-06-10T11:21:25.674Z,11668.00
2018-06-10T11:22:25.648Z,11920.00
2018-06-10T11:23:25.641Z,12320.00
2018-06-10T11:24:25.632Z,12644.00
2018-06-10T11:25:25.625Z,12904.00
2018-06-10T11:26:25.620Z,12968.00
2018-06-10T11:27:25.615Z,13188.00
2018-06-10T11:28:25.605Z,13192.00
2018-06-10T11:29:25.595Z,12580.00
2018-06-10T11:30:25.591Z,11844.00
2018-06-10T11:31:25.585Z,10980.00
2018-06-10T11:32:25.576Z,10536.00
2018-06-10T11:33:25.568Z,10712.00
2018-06-10T11:34:25.619Z,10780.00
2018-06-10T11:35:25.557Z,10752.00
2018-06-10T11:36:25.547Z,10768.00
2018-06-10T11:37:25.539Z,11176.00
2018-06-10T11:38:25.533Z,11560.00
2018-06-10T11:39:25.528Z,12228.00
2018-06-10T11:40:25.517Z,13252.00
2018-06-10T11:41:25.510Z,14196.00
2018-06-10T11:42:25.595Z,14688.00
2018-06-10T11:43:25.498Z,15080.00
2018-06-10T11:44:25.487Z,14700.00
2018-06-10T11:45:25.481Z,13940.00
2018-06-10T11:46:25.479Z,13424.00
2018-06-10T11:47:25.469Z,13176.00
2018-06-10T11:48:25.460Z,13524.00
2018-06-10T11:49:25.453Z,13012.00
2018-06-10T11:50:25.445Z,12528.00
2018-06-10T11:51:25.440Z,11668.00
2018-06-10T11:52:25.433Z,10376.00
2018-06-10T11:53:25.423Z,8992.00
2018-06-10T11:54:25.418Z,8700.00
2018-06-10T11:55:25.411Z,9060.00
2018-06-10T11:56:25.401Z,9240.00
2018-06-10T11:57:25.396Z,9564.00
2018-06-10T11:58:25.392Z,10308.00
2018-06-10T11:59:25.384Z,11588.00
2018-06-10T12:00:25.375Z,13344.00
2018-06-10T12:01:25.369Z,15480.00
2018-06-10T12:02:25.361Z,16448.00
2018-06-10T12:03:25.356Z,15008.00
2018-06-10T12:04:25.345Z,14476.00
2018-06-10T12:05:25.338Z,14528.00
2018-06-10T12:06:25.333Z,14628.00
2018-06-10T12:07:25.326Z,14976.00
2018-06-10T12:08:25.318Z,14932.00
2018-06-10T12:09:25.312Z,14412.00
2018-06-10T12:10:25.307Z,13864.00
2018-06-10T12:11:25.299Z,13612.00
2018-06-10T12:12:25.291Z,13360.00
2018-06-10T12:13:25.290Z,13148.00
2018-06-10T12:14:25.277Z,13192.00
2018-06-10T12:15:25.272Z,13092.00
2018-06-10T12:16:25.265Z,13264.00
2018-06-10T12:17:25.257Z,13508.00
2018-06-10T12:18:25.251Z,13628.00
2018-06-10T12:19:25.253Z,13748.00
2018-06-10T12:20:25.239Z,13624.00
2018-06-10T12:21:25.231Z,12972.00